sensor_id;sensor_type;location;lat;lon;timestamp;pressure;altitude;pressure_sealevel;temperature;humidity
3122;BME280;1571;52.524;14.104;2022-08-21T00:00:48;101152.66;;;18.78;100.00
3122;BME280;1571;52.524;14.104;2022-08-21T00:03:17;101147.00;;;18.81;100.00
3122;BME280;1571;52.524;14.104;2022-08-21T00:05:47;101129.13;;;18.70;100.00
3122;BME280;1571;52.524;14.104;2022-08-21T00:08:19;101118.66;;;18.67;100.00
3122;BME280;1571;52.524;14.104;2022-08-21T00:10:47;101118.94;;;18.73;100.00
3122;BME280;1571;52.524;14.104;2022-08-21T00:13:17;101095.00;;;18.61;100.00
3122;BME280;1571;52.524;14.104;2022-08-21T00:15:47;101090.28;;;18.43;100.00
3122;BME280;1571;52.524;14.104;2022-08-21T00:18:17;101073.91;;;18.46;100.00
3122;BME280;1571;52.524;14.104;2022-08-21T00:20:47;101054.66;;;18.51;100.00
3122;BME280;1571;52.524;14.104;2022-08-21T00:23:16;101042.47;;;18.37;100.00
3122;BME280;1571;52.524;14.104;2022-08-21T00:25:46;101032.84;;;18.35;100.00
3122;BME280;1571;52.524;14.104;2022-08-21T00:28:14;101017.00;;;18.31;100.00
3122;BME280;1571;52.524;14.104;2022-08-21T00:30:43;101016.16;;;18.41;100.00
3122;BME280;1571;52.524;14.104;2022-08-21T00:33:12;101012.50;;;18.51;100.00
3122;BME280;1571;52.524;14.104;2022-08-21T00:35:42;100992.22;;;18.28;100.00
3122;BME280;1571;52.524;14.104;2022-08-21T00:38:11;100984.19;;;18.47;100.00
3122;BME280;1571;52.524;14.104;2022-08-21T00:40:43;100994.66;;;18.31;100.00
3122;BME280;1571;52.524;14.104;2022-08-21T00:43:14;100987.44;;;18.22;100.00
3122;BME280;1571;52.524;14.104;2022-08-21T00:45:43;100984.50;;;18.44;100.00
3122;BME280;1571;52.524;14.104;2022-08-21T00:48:12;100980.47;;;18.09;100.00
3122;BME280;1571;52.524;14.104;2022-08-21T00:50:44;100971.41;;;17.91;100.00
3122;BME280;1571;52.524;14.104;2022-08-21T00:53:15;100969.19;;;18.06;100.00
3122;BME280;1571;52.524;14.104;2022-08-21T00:55:44;100971.44;;;18.10;100.00
3122;BME280;1571;52.524;14.104;2022-08-21T00:58:15;100975.53;;;18.15;100.00
3122;BME280;1571;52.524;14.104;2022-08-21T01:00:48;100982.19;;;18.30;100.00
3122;BME280;1571;52.524;14.104;2022-08-21T01:03:20;100988.44;;;18.40;100.00
3122;BME280;1571;52.524;14.104;2022-08-21T01:05:50;100998.72;;;18.16;100.00
3122;BME280;1571;52.524;14.104;2022-08-21T01:08:19;101006.84;;;18.35;100.00
3122;BME280;1571;52.524;14.104;2022-08-21T01:10:49;101019.41;;;18.25;100.00
3122;BME280;1571;52.524;14.104;2022-08-21T01:13:27;101029.13;;;18.06;100.00
3122;BME280;1571;52.524;14.104;2022-08-21T01:15:59;101048.88;;;18.05;100.00
3122;BME280;1571;52.524;14.104;2022-08-21T01:18:29;101049.91;;;18.04;100.00
3122;BME280;1571;52.524;14.104;2022-08-21T01:21:05;101067.03;;;18.13;100.00
3122;BME280;1571;52.524;14.104;2022-08-21T01:23:34;101069.31;;;18.18;100.00
3122;BME280;1571;52.524;14.104;2022-08-21T01:26:04;101071.81;;;18.09;100.00
3122;BME280;1571;52.524;14.104;2022-08-21T01:28:37;101072.97;;;18.17;100.00
3122;BME280;1571;52.524;14.104;2022-08-21T01:31:09;101082.56;;;18.09;100.00
3122;BME280;1571;52.524;14.104;2022-08-21T01:33:40;101081.63;;;17.89;100.00
3122;BME280;1571;52.524;14.104;2022-08-21T01:36:10;101089.75;;;17.99;100.00
3122;BME280;1571;52.524;14.104;2022-08-21T01:38:38;101096.78;;;17.91;100.00
3122;BME280;1571;52.524;14.104;2022-08-21T01:41:06;101100.34;;;18.01;100.00
3122;BME280;1571;52.524;14.104;2022-08-21T01:43:35;101098.88;;;17.87;100.00
3122;BME280;1571;52.524;14.104;2022-08-21T01:46:06;101091.25;;;17.92;100.00
3122;BME280;1571;52.524;14.104;2022-08-21T01:48:34;101083.38;;;18.00;100.00
3122;BME280;1571;52.524;14.104;2022-08-21T01:51:03;101077.47;;;18.06;100.00
3122;BME280;1571;52.524;14.104;2022-08-21T01:53:34;101064.41;;;17.92;100.00
3122;BME280;1571;52.524;14.104;2022-08-21T01:56:06;101052.25;;;17.88;100.00
3122;BME280;1571;52.524;14.104;2022-08-21T01:58:40;101057.94;;;18.04;100.00
3122;BME280;1571;52.524;14.104;2022-08-21T02:01:09;101055.69;;;18.09;100.00
3122;BME280;1571;52.524;14.104;2022-08-21T02:03:37;101057.09;;;18.04;100.00
3122;BME280;1571;52.524;14.104;2022-08-21T02:06:11;101058.50;;;17.98;100.00
3122;BME280;1571;52.524;14.104;2022-08-21T02:08:42;101053.22;;;17.87;100.00
3122;BME280;1571;52.524;14.104;2022-08-21T02:11:10;101042.66;;;17.95;100.00
3122;BME280;1571;52.524;14.104;2022-08-21T02:13:39;101037.94;;;17.87;100.00
3122;BME280;1571;52.524;14.104;2022-08-21T02:16:08;101048.84;;;17.86;100.00
3122;BME280;1571;52.524;14.104;2022-08-21T02:18:36;101045.09;;;17.77;100.00
3122;BME280;1571;52.524;14.104;2022-08-21T02:21:05;101035.00;;;17.69;100.00
3122;BME280;1571;52.524;14.104;2022-08-21T02:23:34;101024.28;;;17.69;100.00
3122;BME280;1571;52.524;14.104;2022-08-21T02:26:07;101031.84;;;17.85;100.00
3122;BME280;1571;52.524;14.104;2022-08-21T02:28:38;101020.06;;;18.07;100.00
3122;BME280;1571;52.524;14.104;2022-08-21T02:31:07;101017.41;;;17.77;100.00
3122;BME280;1571;52.524;14.104;2022-08-21T02:33:35;101027.84;;;17.70;100.00
3122;BME280;1571;52.524;14.104;2022-08-21T02:36:04;101029.06;;;17.87;100.00
3122;BME280;1571;52.524;14.104;2022-08-21T02:38:34;101032.72;;;17.86;100.00
3122;BME280;1571;52.524;14.104;2022-08-21T02:41:11;101044.09;;;17.78;100.00
3122;BME280;1571;52.524;14.104;2022-08-21T02:43:40;101030.38;;;17.72;100.00
3122;BME280;1571;52.524;14.104;2022-08-21T02:46:10;101027.16;;;17.78;100.00
3122;BME280;1571;52.524;14.104;2022-08-21T02:48:40;101028.16;;;17.77;100.00
3122;BME280;1571;52.524;14.104;2022-08-21T02:51:10;101023.75;;;17.45;100.00
3122;BME280;1571;52.524;14.104;2022-08-21T02:53:40;101034.56;;;17.34;100.00
3122;BME280;1571;52.524;14.104;2022-08-21T02:56:12;101027.25;;;17.66;100.00
3122;BME280;1571;52.524;14.104;2022-08-21T02:58:44;101022.63;;;17.78;100.00
3122;BME280;1571;52.524;14.104;2022-08-21T03:01:13;101012.38;;;17.83;100.00
3122;BME280;1571;52.524;14.104;2022-08-21T03:03:43;101002.91;;;17.89;100.00
3122;BME280;1571;52.524;14.104;2022-08-21T03:06:13;101006.38;;;17.80;100.00
3122;BME280;1571;52.524;14.104;2022-08-21T03:08:42;101015.19;;;17.82;100.00
3122;BME280;1571;52.524;14.104;2022-08-21T03:11:14;101020.56;;;17.82;100.00
3122;BME280;1571;52.524;14.104;2022-08-21T03:13:43;101023.03;;;17.74;100.00
3122;BME280;1571;52.524;14.104;2022-08-21T03:16:11;101014.91;;;17.85;100.00
3122;BME280;1571;52.524;14.104;2022-08-21T03:18:39;101016.75;;;17.84;100.00
3122;BME280;1571;52.524;14.104;2022-08-21T03:21:08;101010.06;;;17.79;100.00
3122;BME280;1571;52.524;14.104;2022-08-21T03:23:36;101005.19;;;17.63;100.00
3122;BME280;1571;52.524;14.104;2022-08-21T03:26:06;101007.00;;;17.62;100.00
3122;BME280;1571;52.524;14.104;2022-08-21T03:28:37;100990.25;;;17.70;100.00
3122;BME280;1571;52.524;14.104;2022-08-21T03:31:05;100986.16;;;17.76;100.00
3122;BME280;1571;52.524;14.104;2022-08-21T03:33:33;100985.19;;;17.46;100.00
3122;BME280;1571;52.524;14.104;2022-08-21T03:36:04;100979.72;;;17.57;100.00
3122;BME280;1571;52.524;14.104;2022-08-21T03:38:34;100985.94;;;17.58;100.00
3122;BME280;1571;52.524;14.104;2022-08-21T03:41:03;100975.38;;;17.56;100.00
3122;BME280;1571;52.524;14.104;2022-08-21T03:43:32;100975.31;;;17.46;100.00
3122;BME280;1571;52.524;14.104;2022-08-21T03:46:03;100982.50;;;17.46;100.00
3122;BME280;1571;52.524;14.104;2022-08-21T03:48:34;100982.94;;;17.51;100.00
3122;BME280;1571;52.524;14.104;2022-08-21T03:51:03;100989.56;;;17.47;100.00
3122;BME280;1571;52.524;14.104;2022-08-21T03:53:33;100992.53;;;17.44;100.00
3122;BME280;1571;52.524;14.104;2022-08-21T03:56:02;100998.34;;;17.49;100.00
3122;BME280;1571;52.524;14.104;2022-08-21T03:58:31;101000.59;;;17.44;100.00
3122;BME280;1571;52.524;14.104;2022-08-21T04:01:02;101002.91;;;17.58;100.00
3122;BME280;1571;52.524;14.104;2022-08-21T04:03:33;100996.63;;;17.38;100.00
3122;BME280;1571;52.524;14.104;2022-08-21T04:06:02;100996.31;;;17.32;100.00
3122;BME280;1571;52.524;14.104;2022-08-21T04:08:30;100988.50;;;17.28;100.00
3122;BME280;1571;52.524;14.104;2022-08-21T04:10:59;100988.56;;;17.38;100.00
3122;BME280;1571;52.524;14.104;2022-08-21T04:13:27;100979.25;;;17.42;100.00
3122;BME280;1571;52.524;14.104;2022-08-21T04:15:56;100983.09;;;17.50;100.00
3122;BME280;1571;52.524;14.104;2022-08-21T04:18:27;100987.84;;;17.36;100.00
3122;BME280;1571;52.524;14.104;2022-08-21T04:20:57;100981.41;;;17.48;100.00
3122;BME280;1571;52.524;14.104;2022-08-21T04:23:28;100974.91;;;17.20;100.00
3122;BME280;1571;52.524;14.104;2022-08-21T04:25:56;100970.72;;;17.27;100.00
3122;BME280;1571;52.524;14.104;2022-08-21T04:28:26;100970.28;;;17.01;100.00
3122;BME280;1571;52.524;14.104;2022-08-21T04:30:56;100972.75;;;17.14;100.00
3122;BME280;1571;52.524;14.104;2022-08-21T04:33:26;100967.53;;;16.92;100.00
3122;BME280;1571;52.524;14.104;2022-08-21T04:35:55;100973.66;;;17.24;100.00
3122;BME280;1571;52.524;14.104;2022-08-21T04:38:23;100964.25;;;17.40;100.00
3122;BME280;1571;52.524;14.104;2022-08-21T04:40:51;100956.41;;;17.48;100.00
3122;BME280;1571;52.524;14.104;2022-08-21T04:43:20;100961.25;;;17.33;100.00
3122;BME280;1571;52.524;14.104;2022-08-21T04:45:51;100959.28;;;17.35;100.00
3122;BME280;1571;52.524;14.104;2022-08-21T04:48:21;100958.97;;;17.28;100.00
3122;BME280;1571;52.524;14.104;2022-08-21T04:50:57;100962.09;;;17.34;100.00
3122;BME280;1571;52.524;14.104;2022-08-21T04:53:31;100961.97;;;17.04;100.00
3122;BME280;1571;52.524;14.104;2022-08-21T04:56:04;100962.28;;;17.11;100.00
3122;BME280;1571;52.524;14.104;2022-08-21T04:58:37;100958.09;;;17.18;100.00
3122;BME280;1571;52.524;14.104;2022-08-21T05:01:09;100955.53;;;17.17;100.00
3122;BME280;1571;52.524;14.104;2022-08-21T05:03:39;100957.28;;;17.27;100.00
3122;BME280;1571;52.524;14.104;2022-08-21T05:06:11;100959.25;;;17.25;100.00
3122;BME280;1571;52.524;14.104;2022-08-21T05:08:42;100955.41;;;17.49;100.00
3122;BME280;1571;52.524;14.104;2022-08-21T05:11:11;100957.00;;;17.61;100.00
3122;BME280;1571;52.524;14.104;2022-08-21T05:13:40;100960.53;;;17.62;100.00
3122;BME280;1571;52.524;14.104;2022-08-21T05:16:08;100960.22;;;17.55;100.00
3122;BME280;1571;52.524;14.104;2022-08-21T05:18:37;100960.50;;;17.52;100.00
3122;BME280;1571;52.524;14.104;2022-08-21T05:21:05;100970.38;;;17.52;100.00
3122;BME280;1571;52.524;14.104;2022-08-21T05:23:35;100961.06;;;17.56;100.00
3122;BME280;1571;52.524;14.104;2022-08-21T05:26:04;100970.06;;;17.45;100.00
3122;BME280;1571;52.524;14.104;2022-08-21T05:28:32;100965.59;;;17.55;100.00
3122;BME280;1571;52.524;14.104;2022-08-21T05:31:00;100964.44;;;17.48;100.00
3122;BME280;1571;52.524;14.104;2022-08-21T05:33:29;100961.13;;;17.65;100.00
3122;BME280;1571;52.524;14.104;2022-08-21T05:35:57;100956.41;;;17.48;100.00
3122;BME280;1571;52.524;14.104;2022-08-21T05:38:26;100963.63;;;17.57;100.00
3122;BME280;1571;52.524;14.104;2022-08-21T05:40:56;100958.56;;;17.64;100.00
3122;BME280;1571;52.524;14.104;2022-08-21T05:43:25;100956.56;;;17.56;100.00
3122;BME280;1571;52.524;14.104;2022-08-21T05:45:53;100964.78;;;17.64;100.00
3122;BME280;1571;52.524;14.104;2022-08-21T05:48:24;100960.53;;;17.62;100.00
3122;BME280;1571;52.524;14.104;2022-08-21T05:50:52;100968.41;;;17.54;100.00
3122;BME280;1571;52.524;14.104;2022-08-21T05:53:22;100966.44;;;17.56;100.00
3122;BME280;1571;52.524;14.104;2022-08-21T05:55:51;100970.03;;;17.76;100.00
3122;BME280;1571;52.524;14.104;2022-08-21T05:58:21;100972.44;;;17.69;100.00
3122;BME280;1571;52.524;14.104;2022-08-21T06:00:51;100969.44;;;18.03;100.00
3122;BME280;1571;52.524;14.104;2022-08-21T06:03:21;100970.31;;;18.13;100.00
3122;BME280;1571;52.524;14.104;2022-08-21T06:05:50;100973.38;;;17.89;100.00
3122;BME280;1571;52.524;14.104;2022-08-21T06:08:20;100972.59;;;17.77;100.00
3122;BME280;1571;52.524;14.104;2022-08-21T06:10:50;100962.09;;;17.95;100.00
3122;BME280;1571;52.524;14.104;2022-08-21T06:13:22;100969.91;;;17.67;100.00
3122;BME280;1571;52.524;14.104;2022-08-21T06:16:00;100978.19;;;17.95;100.00
3122;BME280;1571;52.524;14.104;2022-08-21T06:18:29;100966.03;;;17.91;100.00
3122;BME280;1571;52.524;14.104;2022-08-21T06:20:57;100968.88;;;17.99;100.00
3122;BME280;1571;52.524;14.104;2022-08-21T06:23:26;100968.47;;;18.14;100.00
3122;BME280;1571;52.524;14.104;2022-08-21T06:25:59;100960.44;;;18.33;100.00
3122;BME280;1571;52.524;14.104;2022-08-21T06:28:29;100960.84;;;18.48;100.00
3122;BME280;1571;52.524;14.104;2022-08-21T06:30:57;100962.84;;;18.26;100.00
3122;BME280;1571;52.524;14.104;2022-08-21T06:33:25;100967.75;;;18.12;100.00
3122;BME280;1571;52.524;14.104;2022-08-21T06:35:58;100970.31;;;18.23;100.00
3122;BME280;1571;52.524;14.104;2022-08-21T06:38:27;100970.03;;;18.06;100.00
3122;BME280;1571;52.524;14.104;2022-08-21T06:40:55;100965.34;;;18.08;100.00
3122;BME280;1571;52.524;14.104;2022-08-21T06:43:24;100967.44;;;17.95;100.00
3122;BME280;1571;52.524;14.104;2022-08-21T06:46:07;100972.53;;;18.08;100.00
3122;BME280;1571;52.524;14.104;2022-08-21T06:48:35;100967.75;;;18.12;100.00
3122;BME280;1571;52.524;14.104;2022-08-21T06:51:04;100952.78;;;18.38;100.00
3122;BME280;1571;52.524;14.104;2022-08-21T06:53:33;100963.25;;;18.31;100.00
3122;BME280;1571;52.524;14.104;2022-08-21T06:56:01;100963.50;;;18.19;100.00
3122;BME280;1571;52.524;14.104;2022-08-21T06:58:31;100960.56;;;18.61;100.00
3122;BME280;1571;52.524;14.104;2022-08-21T07:00:59;100966.78;;;18.51;100.00
3122;BME280;1571;52.524;14.104;2022-08-21T07:03:33;100957.16;;;18.59;100.00
3122;BME280;1571;52.524;14.104;2022-08-21T07:06:01;100962.13;;;18.54;100.00
3122;BME280;1571;52.524;14.104;2022-08-21T07:08:30;100965.81;;;18.62;100.00
3122;BME280;1571;52.524;14.104;2022-08-21T07:11:00;100961.56;;;18.69;100.00
3122;BME280;1571;52.524;14.104;2022-08-21T07:13:29;100958.69;;;18.71;100.00
3122;BME280;1571;52.524;14.104;2022-08-21T07:15:58;100953.47;;;18.60;100.00
3122;BME280;1571;52.524;14.104;2022-08-21T07:18:31;100959.84;;;18.59;100.00
3122;BME280;1571;52.524;14.104;2022-08-21T07:21:00;100951.06;;;18.76;100.00
3122;BME280;1571;52.524;14.104;2022-08-21T07:23:31;100956.00;;;18.71;100.00
3122;BME280;1571;52.524;14.104;2022-08-21T07:26:00;100954.91;;;18.83;99.24
3122;BME280;1571;52.524;14.104;2022-08-21T07:28:30;100944.28;;;18.91;99.03
3122;BME280;1571;52.524;14.104;2022-08-21T07:30:59;100947.25;;;18.98;98.50
3122;BME280;1571;52.524;14.104;2022-08-21T07:33:32;100943.41;;;19.01;99.16
3122;BME280;1571;52.524;14.104;2022-08-21T07:36:01;100938.59;;;18.75;98.83
3122;BME280;1571;52.524;14.104;2022-08-21T07:38:29;100946.63;;;19.04;98.82
3122;BME280;1571;52.524;14.104;2022-08-21T07:41:00;100950.16;;;19.05;98.71
3122;BME280;1571;52.524;14.104;2022-08-21T07:43:29;100949.59;;;19.11;99.01
3122;BME280;1571;52.524;14.104;2022-08-21T07:45:57;100949.06;;;18.98;99.37
3122;BME280;1571;52.524;14.104;2022-08-21T07:48:25;100953.31;;;19.00;97.50
3122;BME280;1571;52.524;14.104;2022-08-21T07:50:55;100964.03;;;19.20;98.58
3122;BME280;1571;52.524;14.104;2022-08-21T07:53:23;100965.16;;;19.17;98.43
3122;BME280;1571;52.524;14.104;2022-08-21T07:55:51;100959.41;;;19.40;97.35
3122;BME280;1571;52.524;14.104;2022-08-21T07:58:19;100962.56;;;19.35;96.53
3122;BME280;1571;52.524;14.104;2022-08-21T08:00:48;100956.16;;;19.46;96.92
3122;BME280;1571;52.524;14.104;2022-08-21T08:03:16;100959.94;;;19.53;96.07
3122;BME280;1571;52.524;14.104;2022-08-21T08:05:56;100959.97;;;19.43;95.87
3122;BME280;1571;52.524;14.104;2022-08-21T08:08:24;100961.47;;;19.18;96.35
3122;BME280;1571;52.524;14.104;2022-08-21T08:10:53;100957.25;;;19.06;97.44
3122;BME280;1571;52.524;14.104;2022-08-21T08:13:24;100967.94;;;19.35;95.69
3122;BME280;1571;52.524;14.104;2022-08-21T08:15:52;100971.00;;;19.50;94.69
3122;BME280;1571;52.524;14.104;2022-08-21T08:18:20;100965.63;;;19.50;94.78
3122;BME280;1571;52.524;14.104;2022-08-21T08:20:49;100963.44;;;19.26;95.30
3122;BME280;1571;52.524;14.104;2022-08-21T08:23:18;100966.91;;;19.46;94.99
3122;BME280;1571;52.524;14.104;2022-08-21T08:25:46;100965.31;;;19.53;94.99
3122;BME280;1571;52.524;14.104;2022-08-21T08:28:15;100955.63;;;19.70;94.44
3122;BME280;1571;52.524;14.104;2022-08-21T08:30:44;100962.88;;;19.60;94.06
3122;BME280;1571;52.524;14.104;2022-08-21T08:33:14;100961.63;;;19.54;94.60
3122;BME280;1571;52.524;14.104;2022-08-21T08:35:46;100963.16;;;19.56;94.90
3122;BME280;1571;52.524;14.104;2022-08-21T08:38:17;100961.56;;;19.73;93.68
3122;BME280;1571;52.524;14.104;2022-08-21T08:40:55;100963.50;;;19.44;94.66
3122;BME280;1571;52.524;14.104;2022-08-21T08:43:27;100961.63;;;19.54;92.76
3122;BME280;1571;52.524;14.104;2022-08-21T08:45:57;100960.19;;;19.60;93.53
3122;BME280;1571;52.524;14.104;2022-08-21T08:48:39;100962.19;;;20.13;92.46
3122;BME280;1571;52.524;14.104;2022-08-21T08:51:14;100959.88;;;19.63;91.85
3122;BME280;1571;52.524;14.104;2022-08-21T08:53:50;100954.03;;;19.77;93.60
3122;BME280;1571;52.524;14.104;2022-08-21T08:56:26;100958.00;;;20.01;90.84
3122;BME280;1571;52.524;14.104;2022-08-21T08:58:59;100963.00;;;19.58;91.80
3122;BME280;1571;52.524;14.104;2022-08-21T09:01:28;100959.34;;;19.59;93.06
3122;BME280;1571;52.524;14.104;2022-08-21T09:04:01;100954.13;;;19.85;92.16
3122;BME280;1571;52.524;14.104;2022-08-21T09:06:39;100965.75;;;20.04;91.75
3122;BME280;1571;52.524;14.104;2022-08-21T09:09:18;100966.50;;;19.78;91.23
3122;BME280;1571;52.524;14.104;2022-08-21T09:11:57;100966.03;;;19.83;93.03
3122;BME280;1571;52.524;14.104;2022-08-21T09:14:37;100965.31;;;19.53;92.64
3122;BME280;1571;52.524;14.104;2022-08-21T09:17:16;100962.56;;;19.72;93.11
3122;BME280;1571;52.524;14.104;2022-08-21T09:19:59;100973.88;;;19.39;93.90
3122;BME280;1571;52.524;14.104;2022-08-21T09:22:37;100975.19;;;19.62;93.85
3122;BME280;1571;52.524;14.104;2022-08-21T09:25:12;100968.66;;;19.65;93.42
3122;BME280;1571;52.524;14.104;2022-08-21T09:27:44;100966.25;;;19.71;92.65
3122;BME280;1571;52.524;14.104;2022-08-21T09:30:13;100962.81;;;19.97;92.79
3122;BME280;1571;52.524;14.104;2022-08-21T09:32:41;100967.81;;;19.64;92.14
3122;BME280;1571;52.524;14.104;2022-08-21T09:35:13;100956.47;;;19.70;92.50
3122;BME280;1571;52.524;14.104;2022-08-21T09:37:48;100959.69;;;19.84;92.41
3122;BME280;1571;52.524;14.104;2022-08-21T09:40:31;100959.75;;;19.92;91.62
3122;BME280;1571;52.524;14.104;2022-08-21T09:43:03;100962.53;;;20.00;91.16
3122;BME280;1571;52.524;14.104;2022-08-21T09:45:33;100962.69;;;19.99;91.36
3122;BME280;1571;52.524;14.104;2022-08-21T09:48:09;100963.22;;;19.84;90.83
3122;BME280;1571;52.524;14.104;2022-08-21T09:50:38;100968.63;;;19.74;90.63
3122;BME280;1571;52.524;14.104;2022-08-21T09:53:16;100977.94;;;20.08;89.85
3122;BME280;1571;52.524;14.104;2022-08-21T09:55:51;100968.88;;;20.27;89.15
3122;BME280;1571;52.524;14.104;2022-08-21T09:58:40;100967.09;;;20.53;87.63
3122;BME280;1571;52.524;14.104;2022-08-21T10:01:13;100959.63;;;20.47;89.11
3122;BME280;1571;52.524;14.104;2022-08-21T10:03:43;100967.91;;;20.64;87.05
3122;BME280;1571;52.524;14.104;2022-08-21T10:06:23;100972.25;;;20.83;86.45
3122;BME280;1571;52.524;14.104;2022-08-21T10:09:04;100964.50;;;21.06;84.87
3122;BME280;1571;52.524;14.104;2022-08-21T10:11:33;100964.06;;;21.18;84.58
3122;BME280;1571;52.524;14.104;2022-08-21T10:14:12;100959.88;;;20.98;82.24
3122;BME280;1571;52.524;14.104;2022-08-21T10:16:49;100964.16;;;20.83;84.67
3122;BME280;1571;52.524;14.104;2022-08-21T10:19:25;100967.69;;;21.01;84.09
3122;BME280;1571;52.524;14.104;2022-08-21T10:22:00;100969.00;;;20.97;83.63
3122;BME280;1571;52.524;14.104;2022-08-21T10:24:33;100967.97;;;20.98;83.23
3122;BME280;1571;52.524;14.104;2022-08-21T10:27:15;100966.19;;;20.81;82.83
3122;BME280;1571;52.524;14.104;2022-08-21T10:29:53;100979.00;;;20.61;84.02
3122;BME280;1571;52.524;14.104;2022-08-21T10:35:24;100969.47;;;20.92;81.90
3122;BME280;1571;52.524;14.104;2022-08-21T10:38:30;100967.44;;;21.20;81.42
3122;BME280;1571;52.524;14.104;2022-08-21T10:41:28;100967.91;;;21.08;82.30
3122;BME280;1571;52.524;14.104;2022-08-21T10:44:07;100976.69;;;21.10;81.82
3122;BME280;1571;52.524;14.104;2022-08-21T10:46:46;100972.34;;;21.43;80.06
3122;BME280;1571;52.524;14.104;2022-08-21T10:49:25;100970.84;;;21.23;80.33
3122;BME280;1571;52.524;14.104;2022-08-21T10:52:18;100981.91;;;20.85;81.56
3122;BME280;1571;52.524;14.104;2022-08-21T10:54:52;100973.63;;;20.87;82.69
3122;BME280;1571;52.524;14.104;2022-08-21T10:57:29;100976.03;;;21.16;80.20
3122;BME280;1571;52.524;14.104;2022-08-21T11:00:04;100970.66;;;21.42;78.63
3122;BME280;1571;52.524;14.104;2022-08-21T11:02:40;100978.03;;;21.66;78.02
3122;BME280;1571;52.524;14.104;2022-08-21T11:05:12;100981.97;;;21.46;77.39
3122;BME280;1571;52.524;14.104;2022-08-21T11:07:46;100986.38;;;21.47;78.29
3122;BME280;1571;52.524;14.104;2022-08-21T11:10:20;100986.56;;;21.27;79.61
3122;BME280;1571;52.524;14.104;2022-08-21T11:12:53;100981.97;;;21.46;78.89
3122;BME280;1571;52.524;14.104;2022-08-21T11:15:33;100977.59;;;21.45;78.49
3122;BME280;1571;52.524;14.104;2022-08-21T11:18:22;100978.44;;;21.88;77.73
3122;BME280;1571;52.524;14.104;2022-08-21T11:21:01;100989.22;;;22.30;75.52
3122;BME280;1571;52.524;14.104;2022-08-21T11:23:37;100987.91;;;21.92;76.54
3122;BME280;1571;52.524;14.104;2022-08-21T11:26:10;100986.53;;;21.88;75.89
3122;BME280;1571;52.524;14.104;2022-08-21T11:28:43;100981.91;;;22.14;76.32
3122;BME280;1571;52.524;14.104;2022-08-21T11:31:24;100981.38;;;21.60;75.82
3122;BME280;1571;52.524;14.104;2022-08-21T11:34:08;100988.28;;;22.13;76.89
3122;BME280;1571;52.524;14.104;2022-08-21T11:36:46;100984.38;;;21.99;75.71
3122;BME280;1571;52.524;14.104;2022-08-21T11:39:22;100986.66;;;22.20;76.05
3122;BME280;1571;52.524;14.104;2022-08-21T11:42:02;100996.19;;;22.41;75.89
3122;BME280;1571;52.524;14.104;2022-08-21T11:44:46;100989.44;;;22.61;74.30
3122;BME280;1571;52.524;14.104;2022-08-21T11:47:23;100991.47;;;22.59;72.53
3122;BME280;1571;52.524;14.104;2022-08-21T11:50:05;100991.63;;;22.50;73.71
3122;BME280;1571;52.524;14.104;2022-08-21T11:52:59;100989.94;;;22.40;73.45
3122;BME280;1571;52.524;14.104;2022-08-21T11:55:33;100990.16;;;22.13;73.53
3122;BME280;1571;52.524;14.104;2022-08-21T11:58:07;100991.91;;;21.79;73.86
3122;BME280;1571;52.524;14.104;2022-08-21T12:00:39;100986.09;;;21.58;75.25
3122;BME280;1571;52.524;14.104;2022-08-21T12:03:14;100987.81;;;21.67;74.31
3122;BME280;1571;52.524;14.104;2022-08-21T12:05:53;100983.34;;;21.92;74.37
3122;BME280;1571;52.524;14.104;2022-08-21T12:08:30;100983.09;;;21.69;73.48
3122;BME280;1571;52.524;14.104;2022-08-21T12:11:03;100992.47;;;21.91;72.90
3122;BME280;1571;52.524;14.104;2022-08-21T12:13:33;100993.47;;;21.90;72.53
3122;BME280;1571;52.524;14.104;2022-08-21T12:16:10;100985.06;;;21.59;72.84
3122;BME280;1571;52.524;14.104;2022-08-21T12:18:39;100986.00;;;21.76;73.12
3122;BME280;1571;52.524;14.104;2022-08-21T12:21:21;100985.09;;;22.10;72.00
3122;BME280;1571;52.524;14.104;2022-08-21T12:24:01;100980.28;;;22.62;69.19
3122;BME280;1571;52.524;14.104;2022-08-21T12:26:32;100989.41;;;22.78;68.10
3122;BME280;1571;52.524;14.104;2022-08-21T12:29:07;100988.75;;;23.09;66.81
3122;BME280;1571;52.524;14.104;2022-08-21T12:31:48;100977.16;;;23.39;65.83
3122;BME280;1571;52.524;14.104;2022-08-21T12:34:18;100977.53;;;23.28;64.01
3122;BME280;1571;52.524;14.104;2022-08-21T12:36:55;100982.19;;;23.59;64.09
3122;BME280;1571;52.524;14.104;2022-08-21T12:39:26;100989.72;;;23.40;64.45
3122;BME280;1571;52.524;14.104;2022-08-21T12:41:58;100979.88;;;23.39;66.66
3122;BME280;1571;52.524;14.104;2022-08-21T12:44:35;100984.81;;;23.92;63.68
3122;BME280;1571;52.524;14.104;2022-08-21T12:47:14;100983.75;;;23.53;64.82
3122;BME280;1571;52.524;14.104;2022-08-21T12:49:53;100970.38;;;23.52;65.58
3122;BME280;1571;52.524;14.104;2022-08-21T12:52:29;100983.91;;;23.60;63.55
3122;BME280;1571;52.524;14.104;2022-08-21T12:55:06;100980.59;;;23.17;64.80
3122;BME280;1571;52.524;14.104;2022-08-21T12:57:36;100966.44;;;23.06;64.93
3122;BME280;1571;52.524;14.104;2022-08-21T13:00:07;100977.78;;;22.61;65.68
3122;BME280;1571;52.524;14.104;2022-08-21T13:02:38;100967.44;;;22.64;66.40
3122;BME280;1571;52.524;14.104;2022-08-21T13:05:11;100976.22;;;22.58;64.20
3122;BME280;1571;52.524;14.104;2022-08-21T13:07:46;100974.56;;;22.65;64.49
3122;BME280;1571;52.524;14.104;2022-08-21T13:10:19;100973.16;;;22.94;62.63
3122;BME280;1571;52.524;14.104;2022-08-21T13:12:48;100969.47;;;22.87;62.66
3122;BME280;1571;52.524;14.104;2022-08-21T13:15:25;100973.19;;;23.11;62.79
3122;BME280;1571;52.524;14.104;2022-08-21T13:18:00;100977.00;;;23.33;62.55
3122;BME280;1571;52.524;14.104;2022-08-21T13:20:32;100976.91;;;22.93;64.54
3122;BME280;1571;52.524;14.104;2022-08-21T13:23:06;100973.34;;;22.76;64.13